Pagina principale
METAR-TAF:

METAR-TAF

Aeroporti :

Aerodromo Hinterstoisser-Zeltweg

Zeltweg, Austria

latitudine: 47-12N, longitudine: 014-45E, altezza: 677 m

Osservazione

Il bollettino è stato emesso 42 minuti fa, alle 18:50 UTC
Vento 3 kt da direzioni variabili
Temperature 14°C
Umidità 47%
Pressione 1021 hPa

METAR: LOXZ 231850Z VRB03KT 30KM FEW060SC BKN080SC 14/03 Q1021

Ora: 21:32 (19:32 UTC)

Previsione

Il bollettino è stato emesso 5 ore e 17 minuti fa, alle 14:15 UTC
Previsione valida dal 23 alle 15 UTC al 23 alle 24 UTC
Vento 3 kt da direzioni variabili
Visibilità 10 km o più
Poco nuvoloso ad un'altezza di 6000 ft
Nubi sparse ad un'altezza di 7000 ft

TAF: LOXZ 231415Z 2315/2324 VRB03KT 9999 FEW060 SCT070

Osservazioni e previsioni meteorologiche di più di 4000 aeroporti (messaggi METAR e TAF).

Le stazioni disponibili sono rappresentate dai dischi gialli e rossi sulla carta.

Puntare il mouse per vedere il nome della stazione.

Clicca sopra per visualizzare le osservazioni e previsioni meteorologiche.

Per cambiare la mappa : fare clic sui pulsanti verdi con una croce nera per ingrandire, il pulsante verde con un trattino per diminuire, o sulla freccia verde per le mappe adiacenti.


METAR-TAF: